createdAt,value
2022-07-31T00:01:17.000Z,288.71
2022-07-31T00:02:44.000Z,288.84
2022-07-31T00:04:50.000Z,288.65
2022-07-31T00:06:16.000Z,288.59
2022-07-31T00:08:23.000Z,288.59
2022-07-31T00:09:49.000Z,288.46
2022-07-31T00:11:58.000Z,288.34
2022-07-31T00:14:49.000Z,288.4
2022-07-31T00:16:16.000Z,288.34
2022-07-31T00:18:22.000Z,288.4
2022-07-31T00:19:49.000Z,288.34
2022-07-31T00:21:55.000Z,288.4
2022-07-31T00:23:21.000Z,288.52
2022-07-31T00:25:27.000Z,288.52
2022-07-31T00:26:54.000Z,288.59
2022-07-31T00:29:00.000Z,288.65
2022-07-31T00:30:27.000Z,288.52
2022-07-31T00:32:33.000Z,288.46
2022-07-31T00:33:59.000Z,288.46
2022-07-31T00:36:05.000Z,288.46
2022-07-31T00:37:32.000Z,288.46
2022-07-31T00:39:38.000Z,288.52
2022-07-31T00:41:04.000Z,288.46
2022-07-31T00:43:10.000Z,288.46
2022-07-31T00:44:37.000Z,288.4
2022-07-31T00:46:43.000Z,288.4
2022-07-31T00:48:10.000Z,288.52
2022-07-31T00:50:16.000Z,288.59
2022-07-31T00:53:07.000Z,288.59
2022-07-31T00:54:34.000Z,288.52
2022-07-31T00:56:40.000Z,288.59
2022-07-31T00:58:07.000Z,288.65
2022-07-31T01:00:13.000Z,288.65
2022-07-31T01:01:39.000Z,288.59
2022-07-31T01:03:45.000Z,288.71
2022-07-31T01:05:12.000Z,288.71
2022-07-31T01:07:18.000Z,288.65
2022-07-31T01:08:44.000Z,288.52
2022-07-31T01:10:51.000Z,288.46
2022-07-31T01:12:17.000Z,288.59
2022-07-31T01:14:24.000Z,288.65
2022-07-31T01:15:51.000Z,288.65
2022-07-31T01:17:57.000Z,288.65
2022-07-31T01:19:23.000Z,288.59
2022-07-31T01:21:47.000Z,288.52
2022-07-31T01:23:13.000Z,288.59
2022-07-31T01:25:19.000Z,288.59
2022-07-31T01:26:46.000Z,288.46
2022-07-31T01:28:52.000Z,288.52
2022-07-31T01:31:43.000Z,288.65
2022-07-31T01:33:09.000Z,288.71
2022-07-31T01:35:15.000Z,288.71
2022-07-31T01:36:42.000Z,288.71
2022-07-31T01:38:48.000Z,288.84
2022-07-31T01:40:15.000Z,288.84
2022-07-31T01:42:21.000Z,288.77
2022-07-31T01:43:47.000Z,288.71
2022-07-31T01:45:53.000Z,288.71
2022-07-31T01:47:20.000Z,288.77
2022-07-31T01:49:26.000Z,288.77
2022-07-31T01:50:53.000Z,288.9
2022-07-31T01:52:59.000Z,288.9
2022-07-31T01:54:25.000Z,288.96
2022-07-31T01:56:31.000Z,288.96
2022-07-31T01:57:58.000Z,288.9
2022-07-31T02:00:04.000Z,288.9
2022-07-31T02:01:58.000Z,288.9
2022-07-31T02:04:06.000Z,288.84
2022-07-31T02:05:34.000Z,288.84
2022-07-31T02:07:41.000Z,288.77
2022-07-31T02:10:32.000Z,288.77
2022-07-31T02:11:58.000Z,288.77
2022-07-31T02:14:05.000Z,288.77
2022-07-31T02:15:31.000Z,288.77
2022-07-31T02:17:37.000Z,288.77
2022-07-31T02:19:04.000Z,288.77
2022-07-31T02:21:10.000Z,288.71
2022-07-31T02:22:37.000Z,288.71
2022-07-31T02:24:43.000Z,288.71
2022-07-31T02:26:09.000Z,288.65
2022-07-31T02:28:15.000Z,288.59
2022-07-31T02:29:42.000Z,288.59
2022-07-31T02:31:48.000Z,288.65
2022-07-31T02:33:28.000Z,288.71
2022-07-31T02:35:34.000Z,288.71
2022-07-31T02:37:00.000Z,288.71
2022-07-31T02:39:06.000Z,288.59
2022-07-31T02:40:33.000Z,288.59
2022-07-31T02:42:39.000Z,288.65
2022-07-31T02:44:06.000Z,288.65
2022-07-31T02:46:12.000Z,288.52
2022-07-31T02:49:03.000Z,288.52
2022-07-31T02:50:29.000Z,288.52
2022-07-31T02:52:36.000Z,288.52
2022-07-31T02:54:02.000Z,288.52
2022-07-31T02:56:08.000Z,288.52
2022-07-31T02:57:35.000Z,288.4
2022-07-31T02:59:42.000Z,288.34
2022-07-31T03:01:09.000Z,288.34
2022-07-31T03:03:15.000Z,288.27
2022-07-31T03:04:41.000Z,288.34
2022-07-31T03:06:48.000Z,288.34
2022-07-31T03:08:14.000Z,288.4
2022-07-31T03:10:20.000Z,288.4
2022-07-31T03:11:47.000Z,288.4
2022-07-31T03:13:53.000Z,288.27
2022-07-31T03:15:19.000Z,288.27
2022-07-31T03:17:25.000Z,288.34
2022-07-31T03:19:05.000Z,288.34
2022-07-31T03:21:11.000Z,288.34
2022-07-31T03:22:37.000Z,288.27
2022-07-31T03:24:44.000Z,288.27
2022-07-31T03:27:35.000Z,288.27
2022-07-31T03:29:01.000Z,288.27
2022-07-31T03:31:07.000Z,288.27
2022-07-31T03:32:34.000Z,288.21
2022-07-31T03:34:40.000Z,288.21
2022-07-31T03:36:07.000Z,288.21
2022-07-31T03:38:13.000Z,288.15
2022-07-31T03:40:07.000Z,288.27
2022-07-31T03:43:46.000Z,288.34
2022-07-31T03:44:20.000Z,288.4
2022-07-31T03:45:46.000Z,288.34
2022-07-31T03:47:53.000Z,288.21
2022-07-31T03:49:19.000Z,288.27
2022-07-31T03:51:25.000Z,288.21
2022-07-31T03:52:52.000Z,288.27
2022-07-31T03:54:58.000Z,288.34
2022-07-31T03:56:25.000Z,288.4
2022-07-31T03:58:31.000Z,288.4
2022-07-31T03:59:57.000Z,288.46
2022-07-31T04:02:04.000Z,288.4
2022-07-31T04:03:31.000Z,288.34
2022-07-31T04:05:37.000Z,288.27
2022-07-31T04:08:22.000Z,288.34
2022-07-31T04:09:49.000Z,288.27
2022-07-31T04:11:55.000Z,288.27
2022-07-31T04:13:21.000Z,288.27
2022-07-31T04:15:27.000Z,288.15
2022-07-31T04:16:54.000Z,288.27
2022-07-31T04:19:00.000Z,288.27
2022-07-31T04:20:26.000Z,288.21
2022-07-31T04:22:33.000Z,288.21
2022-07-31T04:23:59.000Z,288.27
2022-07-31T04:26:06.000Z,288.27
2022-07-31T04:27:32.000Z,288.21
2022-07-31T04:29:49.000Z,288.09
2022-07-31T04:31:18.000Z,288.15
2022-07-31T04:33:24.000Z,288.15
2022-07-31T04:34:50.000Z,288.09
2022-07-31T04:36:56.000Z,288.02
2022-07-31T04:38:23.000Z,288.09
2022-07-31T04:40:29.000Z,288.15
2022-07-31T04:41:55.000Z,288.09
2022-07-31T04:44:02.000Z,288.21
2022-07-31T04:46:53.000Z,288.27
2022-07-31T04:48:19.000Z,288.34
2022-07-31T04:50:25.000Z,288.34
2022-07-31T04:51:52.000Z,288.52
2022-07-31T04:53:58.000Z,288.77
2022-07-31T04:55:24.000Z,288.71
2022-07-31T04:57:31.000Z,288.9
2022-07-31T04:58:57.000Z,288.59
2022-07-31T05:01:03.000Z,288.4
2022-07-31T05:02:30.000Z,288.46
2022-07-31T05:04:36.000Z,288.4
2022-07-31T05:06:03.000Z,288.4
2022-07-31T05:08:14.000Z,288.46
2022-07-31T05:09:40.000Z,288.59
2022-07-31T05:11:46.000Z,288.71
2022-07-31T05:13:13.000Z,288.84
2022-07-31T05:15:20.000Z,288.96
2022-07-31T05:16:47.000Z,289.02
2022-07-31T05:18:53.000Z,289.15
2022-07-31T05:20:19.000Z,289.27
2022-07-31T05:22:26.000Z,289.46
2022-07-31T05:25:17.000Z,289.65
2022-07-31T05:26:43.000Z,289.77
2022-07-31T05:28:49.000Z,289.9
2022-07-31T05:30:22.000Z,290.02
2022-07-31T05:32:34.000Z,290.02
2022-07-31T05:34:01.000Z,289.96
2022-07-31T05:36:07.000Z,290.09
2022-07-31T05:37:33.000Z,290.09
2022-07-31T05:39:40.000Z,290.15
2022-07-31T05:41:06.000Z,290.15
2022-07-31T05:43:12.000Z,290.15
2022-07-31T05:44:39.000Z,290.15
2022-07-31T05:46:45.000Z,290.15
2022-07-31T05:48:11.000Z,290.21
2022-07-31T05:50:18.000Z,290.27
2022-07-31T05:51:44.000Z,290.21
2022-07-31T05:53:51.000Z,290.27
2022-07-31T05:55:17.000Z,290.4
2022-07-31T05:57:23.000Z,290.46
2022-07-31T05:58:58.000Z,290.52
2022-07-31T06:01:04.000Z,290.59
2022-07-31T06:03:56.000Z,290.65
2022-07-31T06:05:22.000Z,290.71
2022-07-31T06:07:28.000Z,290.77
2022-07-31T06:08:55.000Z,290.84
2022-07-31T06:11:08.000Z,290.9
2022-07-31T06:12:34.000Z,290.96
2022-07-31T06:14:41.000Z,290.9
2022-07-31T06:16:07.000Z,290.96
2022-07-31T06:18:13.000Z,291.02
2022-07-31T06:19:40.000Z,291.02
2022-07-31T06:21:46.000Z,291.09
2022-07-31T06:23:15.000Z,291.15
2022-07-31T06:25:33.000Z,291.27
2022-07-31T06:27:03.000Z,291.34
2022-07-31T06:29:18.000Z,291.4
2022-07-31T06:31:05.000Z,291.4
2022-07-31T06:33:11.000Z,291.52
2022-07-31T06:35:01.000Z,291.65
2022-07-31T06:37:07.000Z,291.71
2022-07-31T06:38:33.000Z,291.77
2022-07-31T06:40:40.000Z,291.77
2022-07-31T06:43:31.000Z,291.84
2022-07-31T06:44:57.000Z,291.9
2022-07-31T06:47:03.000Z,291.96
2022-07-31T06:48:38.000Z,291.96
2022-07-31T06:50:44.000Z,292.09
2022-07-31T06:52:11.000Z,292.21
2022-07-31T06:54:17.000Z,292.27
2022-07-31T06:55:44.000Z,292.34
2022-07-31T06:57:50.000Z,292.4
2022-07-31T06:59:16.000Z,292.4
2022-07-31T07:01:44.000Z,292.4
2022-07-31T07:03:11.000Z,292.46
2022-07-31T07:05:17.000Z,292.52
2022-07-31T07:06:43.000Z,292.52
2022-07-31T07:08:49.000Z,292.59
2022-07-31T07:10:16.000Z,292.65
2022-07-31T07:12:22.000Z,292.71
2022-07-31T07:13:51.000Z,292.65
2022-07-31T07:15:57.000Z,292.77
2022-07-31T07:17:24.000Z,292.84
2022-07-31T07:19:33.000Z,292.9
2022-07-31T07:22:25.000Z,292.84
2022-07-31T07:23:56.000Z,292.84
2022-07-31T07:26:02.000Z,292.9
2022-07-31T07:27:29.000Z,292.96
2022-07-31T07:29:35.000Z,293.02
2022-07-31T07:31:01.000Z,293.09
2022-07-31T07:33:07.000Z,293.15
2022-07-31T07:34:34.000Z,293.21
2022-07-31T07:36:40.000Z,293.34
2022-07-31T07:38:06.000Z,293.4
2022-07-31T07:40:13.000Z,293.59
2022-07-31T07:41:39.000Z,293.65
2022-07-31T07:43:45.000Z,293.96
2022-07-31T07:45:17.000Z,294.15
2022-07-31T07:47:25.000Z,294.4
2022-07-31T07:49:30.000Z,294.65
2022-07-31T07:51:36.000Z,294.84
2022-07-31T07:53:24.000Z,294.71
2022-07-31T07:55:30.000Z,294.65
2022-07-31T07:57:02.000Z,294.65
2022-07-31T07:59:08.000Z,294.71
2022-07-31T08:02:04.000Z,294.71
2022-07-31T08:03:31.000Z,294.77
2022-07-31T08:05:55.000Z,295.15
2022-07-31T08:07:22.000Z,295.27
2022-07-31T08:11:19.000Z,295.59
2022-07-31T08:11:52.000Z,295.65
2022-07-31T08:13:19.000Z,295.65
2022-07-31T08:15:25.000Z,295.52
2022-07-31T08:16:51.000Z,295.46
2022-07-31T08:18:58.000Z,295.59
2022-07-31T08:20:24.000Z,295.77
2022-07-31T08:22:30.000Z,296.02
2022-07-31T08:23:57.000Z,296.09
2022-07-31T08:26:03.000Z,296.15
2022-07-31T08:27:31.000Z,296.34
2022-07-31T08:29:44.000Z,296.34
2022-07-31T08:31:13.000Z,296.34
2022-07-31T08:33:19.000Z,296.21
2022-07-31T08:34:46.000Z,296.4
2022-07-31T08:36:52.000Z,296.46
2022-07-31T08:38:18.000Z,296.4
2022-07-31T08:40:24.000Z,296.34
2022-07-31T08:43:09.000Z,296.46
2022-07-31T08:45:28.000Z,296.46
2022-07-31T08:47:34.000Z,296.65
2022-07-31T08:49:01.000Z,296.84
2022-07-31T08:51:07.000Z,296.9
2022-07-31T08:52:34.000Z,296.77
2022-07-31T08:54:40.000Z,296.77
2022-07-31T08:56:06.000Z,296.71
2022-07-31T08:58:12.000Z,296.71
2022-07-31T08:59:39.000Z,296.71
2022-07-31T09:01:45.000Z,296.77
2022-07-31T09:03:12.000Z,296.71
2022-07-31T09:05:18.000Z,296.77
2022-07-31T09:06:44.000Z,296.84
2022-07-31T09:08:51.000Z,296.96
2022-07-31T09:10:17.000Z,297.21
2022-07-31T09:12:23.000Z,297.4
2022-07-31T09:13:58.000Z,297.59
2022-07-31T09:16:07.000Z,297.52
2022-07-31T09:17:33.000Z,297.65
2022-07-31T09:19:39.000Z,297.65
2022-07-31T09:22:42.000Z,298.09
2022-07-31T09:24:09.000Z,298.15
2022-07-31T09:26:15.000Z,297.96
2022-07-31T09:27:41.000Z,298.02
2022-07-31T09:29:47.000Z,298.15
2022-07-31T09:31:14.000Z,298.02
2022-07-31T09:33:20.000Z,297.96
2022-07-31T09:34:47.000Z,297.84
2022-07-31T09:36:53.000Z,297.71
2022-07-31T09:38:19.000Z,297.77
2022-07-31T09:40:26.000Z,298.15
2022-07-31T09:41:54.000Z,298.21
2022-07-31T09:44:15.000Z,297.96
2022-07-31T09:45:49.000Z,297.96
2022-07-31T09:47:55.000Z,298.09
2022-07-31T09:49:22.000Z,298.27
2022-07-31T09:51:28.000Z,298.46
2022-07-31T09:52:55.000Z,298.46
2022-07-31T09:55:01.000Z,298.4
2022-07-31T09:56:41.000Z,298.09
2022-07-31T09:58:47.000Z,298.02
2022-07-31T10:01:38.000Z,298.09
2022-07-31T10:03:05.000Z,298.02
2022-07-31T10:05:11.000Z,297.9
2022-07-31T10:06:37.000Z,297.77
2022-07-31T10:08:44.000Z,297.84
2022-07-31T10:10:10.000Z,297.77
2022-07-31T10:12:17.000Z,297.84
2022-07-31T10:13:43.000Z,297.9
2022-07-31T10:15:49.000Z,297.9
2022-07-31T10:17:16.000Z,297.84
2022-07-31T10:19:22.000Z,297.9
2022-07-31T10:20:49.000Z,297.96
2022-07-31T10:22:55.000Z,298.02
2022-07-31T10:24:21.000Z,298.02
2022-07-31T10:26:32.000Z,297.9
2022-07-31T10:28:24.000Z,298.02
2022-07-31T10:30:30.000Z,297.96
2022-07-31T10:31:57.000Z,297.96
2022-07-31T10:34:03.000Z,298.02
2022-07-31T10:35:29.000Z,298.09
2022-07-31T10:37:36.000Z,298.27
2022-07-31T10:40:27.000Z,298.46
2022-07-31T10:41:53.000Z,298.34
2022-07-31T10:44:00.000Z,298.46
2022-07-31T10:45:26.000Z,298.52
2022-07-31T10:47:32.000Z,298.71
2022-07-31T10:48:59.000Z,299.02
2022-07-31T10:51:12.000Z,299.52
2022-07-31T10:52:39.000Z,299.59
2022-07-31T10:54:45.000Z,299.4
2022-07-31T10:56:12.000Z,299.02
2022-07-31T10:58:18.000Z,299.15
2022-07-31T10:59:44.000Z,299.27
2022-07-31T11:01:51.000Z,299.34
2022-07-31T11:03:18.000Z,298.96
2022-07-31T11:05:24.000Z,298.71
2022-07-31T11:06:50.000Z,298.84
2022-07-31T11:08:57.000Z,298.84
2022-07-31T11:10:23.000Z,298.77
2022-07-31T11:12:29.000Z,298.84
2022-07-31T11:13:56.000Z,298.96
2022-07-31T11:16:02.000Z,299.09
2022-07-31T11:18:53.000Z,299.71
2022-07-31T11:20:20.000Z,299.9
2022-07-31T11:22:26.000Z,299.59
2022-07-31T11:23:57.000Z,299.9
2022-07-31T11:26:09.000Z,300.09
2022-07-31T11:27:35.000Z,300.15
2022-07-31T11:29:41.000Z,299.77
2022-07-31T11:31:27.000Z,299.65
2022-07-31T11:33:33.000Z,299.4
2022-07-31T11:35:06.000Z,299.4
2022-07-31T11:37:12.000Z,299.34
2022-07-31T11:38:41.000Z,299.4
2022-07-31T11:40:48.000Z,299.4
2022-07-31T11:42:18.000Z,299.4
2022-07-31T11:44:30.000Z,299.34
2022-07-31T11:45:56.000Z,299.34
2022-07-31T11:48:25.000Z,299.21
2022-07-31T11:49:52.000Z,299.15
2022-07-31T11:51:58.000Z,299.09
2022-07-31T11:53:25.000Z,299.21
2022-07-31T11:55:31.000Z,299.27
2022-07-31T11:58:22.000Z,299.65
2022-07-31T11:59:49.000Z,299.84
2022-07-31T12:01:59.000Z,299.77
2022-07-31T12:03:25.000Z,299.84
2022-07-31T12:05:31.000Z,299.77
2022-07-31T12:07:03.000Z,299.71
2022-07-31T12:09:10.000Z,299.71
2022-07-31T12:11:27.000Z,299.77
2022-07-31T12:13:34.000Z,299.65
2022-07-31T12:15:02.000Z,299.71
2022-07-31T12:17:09.000Z,300.09
2022-07-31T12:18:39.000Z,300.21
2022-07-31T12:20:45.000Z,300.52
2022-07-31T12:22:13.000Z,300.4
2022-07-31T12:24:19.000Z,300.27
2022-07-31T12:25:46.000Z,300.46
2022-07-31T12:27:52.000Z,300.84
2022-07-31T12:29:18.000Z,301.09
2022-07-31T12:31:25.000Z,300.65
2022-07-31T12:32:51.000Z,300.46
2022-07-31T12:34:57.000Z,300.4
2022-07-31T12:37:48.000Z,300.09
2022-07-31T12:39:15.000Z,300.09
2022-07-31T12:41:21.000Z,299.9
2022-07-31T12:42:48.000Z,299.77
2022-07-31T12:44:54.000Z,299.65
2022-07-31T12:46:20.000Z,299.77
2022-07-31T12:48:27.000Z,299.96
2022-07-31T12:49:53.000Z,300.02
2022-07-31T12:51:59.000Z,300.15
2022-07-31T12:53:26.000Z,300.27
2022-07-31T12:55:32.000Z,300.15
2022-07-31T12:56:59.000Z,299.96
2022-07-31T12:59:05.000Z,299.96
2022-07-31T13:00:32.000Z,299.96
2022-07-31T13:02:44.000Z,299.9
2022-07-31T13:04:10.000Z,299.84
2022-07-31T13:06:23.000Z,299.9
2022-07-31T13:07:50.000Z,299.96
2022-07-31T13:09:56.000Z,299.9
2022-07-31T13:11:48.000Z,300.02
2022-07-31T13:14:00.000Z,300.09
2022-07-31T13:16:51.000Z,300.27
2022-07-31T13:18:17.000Z,300.21
2022-07-31T13:20:23.000Z,300.34
2022-07-31T13:21:50.000Z,300.46
2022-07-31T13:24:00.000Z,300.46
2022-07-31T13:25:27.000Z,300.27
2022-07-31T13:27:33.000Z,300.27
2022-07-31T13:29:00.000Z,300.27
2022-07-31T13:31:06.000Z,300.34
2022-07-31T13:32:32.000Z,300.09
2022-07-31T13:34:38.000Z,299.96
2022-07-31T13:36:05.000Z,299.9
2022-07-31T13:38:11.000Z,299.96
2022-07-31T13:39:38.000Z,299.96
2022-07-31T13:41:44.000Z,299.84
2022-07-31T13:43:11.000Z,299.71
2022-07-31T13:45:17.000Z,299.71
2022-07-31T13:46:43.000Z,299.77
2022-07-31T13:48:49.000Z,299.77
2022-07-31T13:50:16.000Z,299.77
2022-07-31T13:52:22.000Z,299.65
2022-07-31T13:55:14.000Z,299.84
2022-07-31T13:56:40.000Z,300.02
2022-07-31T13:58:47.000Z,300.15
2022-07-31T14:00:14.000Z,300.27
2022-07-31T14:02:20.000Z,300.4
2022-07-31T14:03:47.000Z,300.27
2022-07-31T14:05:53.000Z,300.34
2022-07-31T14:07:20.000Z,300.46
2022-07-31T14:09:49.000Z,300.21
2022-07-31T14:11:19.000Z,300.09
2022-07-31T14:13:25.000Z,300.02
2022-07-31T14:14:52.000Z,299.96
2022-07-31T14:16:58.000Z,299.96
2022-07-31T14:18:25.000Z,299.96
2022-07-31T14:20:31.000Z,300.09
2022-07-31T14:21:57.000Z,299.96
2022-07-31T14:24:04.000Z,299.77
2022-07-31T14:25:31.000Z,299.77
2022-07-31T14:27:37.000Z,299.71
2022-07-31T14:29:03.000Z,299.77
2022-07-31T14:31:11.000Z,299.65
2022-07-31T14:34:02.000Z,299.65
2022-07-31T14:35:29.000Z,299.77
2022-07-31T14:37:35.000Z,299.77
2022-07-31T14:39:01.000Z,299.84
2022-07-31T14:41:08.000Z,299.65
2022-07-31T14:42:34.000Z,299.65
2022-07-31T14:44:43.000Z,299.71
2022-07-31T14:46:09.000Z,299.65
2022-07-31T14:48:16.000Z,299.65
2022-07-31T14:49:42.000Z,299.71
2022-07-31T14:52:14.000Z,299.71
2022-07-31T14:53:40.000Z,299.65
2022-07-31T14:55:46.000Z,299.77
2022-07-31T14:57:13.000Z,299.59
2022-07-31T14:59:26.000Z,299.59
2022-07-31T15:00:53.000Z,299.65
2022-07-31T15:02:59.000Z,299.59
2022-07-31T15:04:25.000Z,299.46
2022-07-31T15:06:32.000Z,299.52
2022-07-31T15:08:20.000Z,299.52
2022-07-31T15:10:26.000Z,299.59
2022-07-31T15:13:18.000Z,299.59
2022-07-31T15:14:45.000Z,299.71
2022-07-31T15:16:51.000Z,299.84
2022-07-31T15:18:17.000Z,299.84
2022-07-31T15:20:28.000Z,299.84
2022-07-31T15:21:57.000Z,299.71
2022-07-31T15:24:20.000Z,299.77
2022-07-31T15:25:47.000Z,299.71
2022-07-31T15:27:53.000Z,299.77
2022-07-31T15:29:20.000Z,299.84
2022-07-31T15:31:26.000Z,299.77
2022-07-31T15:32:52.000Z,299.84
2022-07-31T15:34:59.000Z,300.15
2022-07-31T15:36:25.000Z,300.15
2022-07-31T15:38:31.000Z,299.96
2022-07-31T15:39:58.000Z,299.9
2022-07-31T15:42:07.000Z,299.9
2022-07-31T15:43:39.000Z,300.02
2022-07-31T15:45:45.000Z,300.27
2022-07-31T15:47:12.000Z,300.15
2022-07-31T15:49:18.000Z,300.27
2022-07-31T15:52:10.000Z,300.4
2022-07-31T15:53:43.000Z,300.4
2022-07-31T15:55:49.000Z,300.27
2022-07-31T15:57:16.000Z,300.27
2022-07-31T15:59:22.000Z,300.59
2022-07-31T16:00:49.000Z,300.96
2022-07-31T16:02:56.000Z,301.09
2022-07-31T16:04:24.000Z,301.09
2022-07-31T16:06:35.000Z,301.09
2022-07-31T16:08:04.000Z,301.09
2022-07-31T16:10:38.000Z,300.77
2022-07-31T16:12:05.000Z,300.59
2022-07-31T16:14:11.000Z,300.59
2022-07-31T16:15:38.000Z,300.71
2022-07-31T16:17:44.000Z,300.84
2022-07-31T16:19:10.000Z,300.71
2022-07-31T16:21:19.000Z,300.77
2022-07-31T16:22:45.000Z,300.52
2022-07-31T16:24:58.000Z,300.4
2022-07-31T16:26:24.000Z,300.34
2022-07-31T16:28:30.000Z,300.34
2022-07-31T16:31:21.000Z,300.21
2022-07-31T16:32:54.000Z,300.27
2022-07-31T16:35:01.000Z,300.59
2022-07-31T16:36:27.000Z,300.4
2022-07-31T16:38:33.000Z,300.34
2022-07-31T16:40:00.000Z,300.34
2022-07-31T16:42:08.000Z,300.21
2022-07-31T16:43:35.000Z,300.15
2022-07-31T16:45:55.000Z,299.96
2022-07-31T16:47:22.000Z,299.9
2022-07-31T16:51:28.000Z,299.84
2022-07-31T16:52:02.000Z,299.77
2022-07-31T16:53:28.000Z,299.77
2022-07-31T16:56:19.000Z,299.77
2022-07-31T16:57:45.000Z,299.71
2022-07-31T16:59:51.000Z,299.65
2022-07-31T17:01:22.000Z,299.77
2022-07-31T17:04:03.000Z,299.77
2022-07-31T17:05:29.000Z,299.77
2022-07-31T17:07:36.000Z,299.84
2022-07-31T17:09:02.000Z,300.09
2022-07-31T17:11:21.000Z,300.46
2022-07-31T17:14:07.000Z,300.77
2022-07-31T17:15:33.000Z,300.96
2022-07-31T17:17:39.000Z,300.77
2022-07-31T17:19:06.000Z,300.71
2022-07-31T17:21:17.000Z,300.52
2022-07-31T17:22:47.000Z,300.46
2022-07-31T17:24:58.000Z,300.34
2022-07-31T17:26:25.000Z,300.27
2022-07-31T17:28:33.000Z,300.15
2022-07-31T17:29:59.000Z,300.15
2022-07-31T17:32:06.000Z,299.9
2022-07-31T17:33:35.000Z,299.84
2022-07-31T17:36:04.000Z,299.71
2022-07-31T17:37:31.000Z,299.77
2022-07-31T17:39:37.000Z,299.59
2022-07-31T17:41:04.000Z,299.65
2022-07-31T17:43:28.000Z,299.59
2022-07-31T17:45:14.000Z,299.46
2022-07-31T17:47:20.000Z,299.46
2022-07-31T17:48:47.000Z,299.4
2022-07-31T17:50:53.000Z,299.46
2022-07-31T17:53:44.000Z,299.27
2022-07-31T17:55:23.000Z,299.21
2022-07-31T17:57:30.000Z,299.27
2022-07-31T17:58:57.000Z,299.15
2022-07-31T18:01:03.000Z,299.09
2022-07-31T18:02:30.000Z,299.09
2022-07-31T18:04:36.000Z,299.09
2022-07-31T18:06:03.000Z,299.09
2022-07-31T18:08:09.000Z,298.96
2022-07-31T18:09:35.000Z,299.02
2022-07-31T18:11:42.000Z,299.02
2022-07-31T18:13:08.000Z,299.02
2022-07-31T18:15:14.000Z,298.96
2022-07-31T18:16:41.000Z,298.96
2022-07-31T18:18:47.000Z,299.02
2022-07-31T18:20:18.000Z,298.9
2022-07-31T18:22:24.000Z,298.84
2022-07-31T18:23:59.000Z,298.71
2022-07-31T18:26:09.000Z,298.65
2022-07-31T18:27:36.000Z,298.65
2022-07-31T18:29:42.000Z,298.65
2022-07-31T18:32:45.000Z,298.65
2022-07-31T18:34:12.000Z,298.59
2022-07-31T18:36:18.000Z,298.52
2022-07-31T18:37:44.000Z,298.52
2022-07-31T18:39:51.000Z,298.4
2022-07-31T18:41:17.000Z,298.4
2022-07-31T18:43:23.000Z,298.4
2022-07-31T18:44:50.000Z,298.34
2022-07-31T18:46:56.000Z,298.27
2022-07-31T18:48:22.000Z,298.34
2022-07-31T18:50:29.000Z,298.21
2022-07-31T18:52:28.000Z,298.15
2022-07-31T18:54:34.000Z,298.15
2022-07-31T18:56:00.000Z,298.09
2022-07-31T18:58:07.000Z,297.96
2022-07-31T18:59:33.000Z,297.96
2022-07-31T19:01:39.000Z,297.96
2022-07-31T19:03:07.000Z,297.9
2022-07-31T19:05:13.000Z,297.77
2022-07-31T19:06:46.000Z,297.65
2022-07-31T19:08:58.000Z,297.59
2022-07-31T19:11:51.000Z,297.46
2022-07-31T19:13:23.000Z,297.46
2022-07-31T19:15:29.000Z,297.34
2022-07-31T19:16:56.000Z,297.27
2022-07-31T19:19:02.000Z,297.15
2022-07-31T19:20:29.000Z,297.09
2022-07-31T19:23:02.000Z,296.9
2022-07-31T19:24:36.000Z,296.84
2022-07-31T19:26:42.000Z,296.77
2022-07-31T19:28:09.000Z,296.71
2022-07-31T19:30:19.000Z,296.71
2022-07-31T19:31:45.000Z,296.77
2022-07-31T19:33:52.000Z,296.65
2022-07-31T19:35:18.000Z,296.46
2022-07-31T19:37:24.000Z,296.21
2022-07-31T19:38:51.000Z,296.15
2022-07-31T19:40:57.000Z,296.15
2022-07-31T19:42:24.000Z,296.09
2022-07-31T19:44:30.000Z,295.96
2022-07-31T19:45:57.000Z,295.9
2022-07-31T19:48:16.000Z,295.9
2022-07-31T19:51:07.000Z,295.84
2022-07-31T19:52:34.000Z,295.77
2022-07-31T19:54:40.000Z,295.71
2022-07-31T19:56:06.000Z,295.59
2022-07-31T19:58:13.000Z,295.4
2022-07-31T19:59:39.000Z,295.46
2022-07-31T20:01:45.000Z,295.34
2022-07-31T20:03:12.000Z,295.34
2022-07-31T20:05:18.000Z,295.34
2022-07-31T20:06:45.000Z,295.27
2022-07-31T20:08:51.000Z,295.27
2022-07-31T20:10:17.000Z,295.15
2022-07-31T20:12:24.000Z,295.09
2022-07-31T20:13:50.000Z,294.9
2022-07-31T20:15:56.000Z,294.77
2022-07-31T20:17:23.000Z,294.77
2022-07-31T20:19:29.000Z,294.71
2022-07-31T20:20:55.000Z,294.65
2022-07-31T20:23:02.000Z,294.59
2022-07-31T20:24:28.000Z,294.52
2022-07-31T20:26:34.000Z,294.34
2022-07-31T20:29:26.000Z,294.34
2022-07-31T20:30:53.000Z,294.4
2022-07-31T20:32:59.000Z,294.46
2022-07-31T20:34:28.000Z,294.46
2022-07-31T20:36:34.000Z,294.4
2022-07-31T20:38:01.000Z,294.34
2022-07-31T20:40:07.000Z,294.4
2022-07-31T20:41:33.000Z,294.4
2022-07-31T20:43:40.000Z,294.34
2022-07-31T20:45:06.000Z,294.4
2022-07-31T20:47:12.000Z,294.34
2022-07-31T20:48:39.000Z,294.27
2022-07-31T20:50:45.000Z,294.09
2022-07-31T20:52:13.000Z,293.96
2022-07-31T20:54:19.000Z,293.84
2022-07-31T20:55:59.000Z,293.77
2022-07-31T20:58:05.000Z,293.71
2022-07-31T20:59:32.000Z,293.65
2022-07-31T21:01:38.000Z,293.59
2022-07-31T21:03:04.000Z,293.46
2022-07-31T21:05:11.000Z,293.71
2022-07-31T21:08:15.000Z,293.59
2022-07-31T21:09:42.000Z,293.52
2022-07-31T21:11:48.000Z,293.46
2022-07-31T21:13:15.000Z,293.46
2022-07-31T21:15:21.000Z,293.52
2022-07-31T21:17:07.000Z,293.4
2022-07-31T21:19:14.000Z,293.4
2022-07-31T21:20:40.000Z,293.27
2022-07-31T21:22:57.000Z,293.21
2022-07-31T21:24:23.000Z,293.21
2022-07-31T21:26:29.000Z,293.15
2022-07-31T21:27:57.000Z,293.15
2022-07-31T21:30:03.000Z,293.27
2022-07-31T21:31:30.000Z,293.27
2022-07-31T21:33:36.000Z,293.02
2022-07-31T21:35:02.000Z,292.9
2022-07-31T21:37:09.000Z,292.96
2022-07-31T21:38:40.000Z,292.84
2022-07-31T21:40:47.000Z,292.77
2022-07-31T21:42:13.000Z,292.77
2022-07-31T21:44:19.000Z,292.84
2022-07-31T21:47:12.000Z,292.9
2022-07-31T21:48:41.000Z,293.02
2022-07-31T21:50:47.000Z,292.96
2022-07-31T21:52:13.000Z,293.02
2022-07-31T21:54:20.000Z,292.9
2022-07-31T21:55:46.000Z,292.96
2022-07-31T21:57:52.000Z,292.77
2022-07-31T21:59:24.000Z,292.77
2022-07-31T22:01:30.000Z,292.71
2022-07-31T22:02:57.000Z,292.71
2022-07-31T22:05:03.000Z,292.71
2022-07-31T22:06:29.000Z,292.71
2022-07-31T22:08:35.000Z,292.65
2022-07-31T22:10:02.000Z,292.77
2022-07-31T22:12:08.000Z,292.59
2022-07-31T22:13:35.000Z,292.71
2022-07-31T22:15:41.000Z,292.59
2022-07-31T22:17:24.000Z,292.59
2022-07-31T22:19:31.000Z,292.71
2022-07-31T22:20:57.000Z,292.65
2022-07-31T22:23:03.000Z,292.65
2022-07-31T22:25:55.000Z,292.65
2022-07-31T22:27:21.000Z,292.59
2022-07-31T22:29:27.000Z,292.52
2022-07-31T22:30:54.000Z,292.4
2022-07-31T22:33:00.000Z,292.21
2022-07-31T22:34:28.000Z,292.34
2022-07-31T22:36:42.000Z,292.46
2022-07-31T22:38:08.000Z,292.59
2022-07-31T22:40:14.000Z,292.71
2022-07-31T22:41:41.000Z,292.96
2022-07-31T22:43:47.000Z,293.15
2022-07-31T22:45:39.000Z,293.21
2022-07-31T22:47:45.000Z,293.27
2022-07-31T22:49:12.000Z,293.27
2022-07-31T22:51:18.000Z,293.4
2022-07-31T22:52:45.000Z,293.46
2022-07-31T22:54:51.000Z,293.52
2022-07-31T22:56:18.000Z,293.59
2022-07-31T22:58:24.000Z,293.52
2022-07-31T22:59:50.000Z,293.52
2022-07-31T23:01:56.000Z,293.52
2022-07-31T23:04:53.000Z,293.46
2022-07-31T23:06:20.000Z,293.46
2022-07-31T23:08:36.000Z,293.52
2022-07-31T23:10:02.000Z,293.59
2022-07-31T23:12:08.000Z,293.59
2022-07-31T23:13:35.000Z,293.52
2022-07-31T23:15:42.000Z,293.4